createdAt,value
2023-04-02T00:00:17.269Z,92.06
2023-04-02T00:00:49.936Z,91.75
2023-04-02T00:01:22.607Z,91.64
2023-04-02T00:01:55.314Z,91.75
2023-04-02T00:02:28.120Z,91.75
2023-04-02T00:03:00.910Z,90.81
2023-04-02T00:03:33.659Z,90.29
2023-04-02T00:04:06.349Z,90.29
2023-04-02T00:04:39.027Z,89.98
2023-04-02T00:05:11.709Z,89.98
2023-04-02T00:05:44.378Z,90.29
2023-04-02T00:06:17.072Z,90.70
2023-04-02T00:06:49.753Z,91.22
2023-04-02T00:07:22.422Z,90.91
2023-04-02T00:07:55.103Z,90.39
2023-04-02T00:08:27.780Z,90.60
2023-04-02T00:09:00.453Z,90.70
2023-04-02T00:09:33.150Z,90.29
2023-04-02T00:10:05.780Z,90.08
2023-04-02T00:10:38.458Z,90.50
2023-04-02T00:11:11.114Z,90.60
2023-04-02T00:11:43.807Z,90.60
2023-04-02T00:12:16.475Z,90.81
2023-04-02T00:12:49.163Z,91.02
2023-04-02T00:13:21.830Z,91.12
2023-04-02T00:13:54.506Z,91.12
2023-04-02T00:14:27.170Z,91.43
2023-04-02T00:14:59.834Z,91.75
2023-04-02T00:15:32.825Z,91.85
2023-04-02T00:15:59.174Z,91.75
2023-04-02T00:16:31.874Z,91.75
2023-04-02T00:17:04.539Z,91.96
2023-04-02T00:17:37.197Z,91.75
2023-04-02T00:18:09.917Z,91.53
2023-04-02T00:18:42.585Z,91.43
2023-04-02T00:19:15.254Z,91.64
2023-04-02T00:19:47.909Z,91.12
2023-04-02T00:20:20.582Z,90.39
2023-04-02T00:20:53.248Z,90.39
2023-04-02T00:21:25.942Z,90.60
2023-04-02T00:21:58.624Z,90.81
2023-04-02T00:22:31.293Z,91.02
2023-04-02T00:23:03.966Z,91.22
2023-04-02T00:23:36.625Z,91.64
2023-04-02T00:24:09.306Z,91.43
2023-04-02T00:24:41.982Z,91.12
2023-04-02T00:25:14.650Z,90.91
2023-04-02T00:25:47.328Z,91.12
2023-04-02T00:26:20.004Z,91.53
2023-04-02T00:26:52.676Z,91.43
2023-04-02T00:27:25.337Z,91.53
2023-04-02T00:27:58.004Z,91.64
2023-04-02T00:28:30.673Z,91.75
2023-04-02T00:29:03.416Z,91.22
2023-04-02T00:29:36.055Z,91.22
2023-04-02T00:30:08.744Z,91.33
2023-04-02T00:30:41.395Z,91.75
2023-04-02T00:31:14.073Z,91.33
2023-04-02T00:31:46.807Z,91.33
2023-04-02T00:32:19.641Z,91.64
2023-04-02T00:32:52.420Z,91.85
2023-04-02T00:33:25.077Z,91.64
2023-04-02T00:33:57.740Z,91.43
2023-04-02T00:34:30.409Z,90.91
2023-04-02T00:35:03.086Z,91.12
2023-04-02T00:35:35.989Z,91.43
2023-04-02T00:36:02.398Z,91.75
2023-04-02T00:36:35.092Z,91.85
2023-04-02T00:37:07.748Z,91.85
2023-04-02T00:37:40.412Z,91.22
2023-04-02T00:38:13.086Z,90.70
2023-04-02T00:38:47.492Z,90.29
2023-04-02T00:39:14.778Z,90.08
2023-04-02T00:39:47.469Z,90.29
2023-04-02T00:40:20.110Z,90.60
2023-04-02T00:40:52.782Z,90.81
2023-04-02T00:41:25.467Z,90.81
2023-04-02T00:41:58.170Z,90.91
2023-04-02T00:42:30.836Z,91.02
2023-04-02T00:43:03.521Z,91.43
2023-04-02T00:43:34.624Z,91.43
2023-04-02T00:44:07.300Z,90.91
2023-04-02T00:44:39.992Z,91.02
2023-04-02T00:45:12.659Z,90.91
2023-04-02T00:45:45.388Z,91.02
2023-04-02T00:46:18.165Z,91.22
2023-04-02T00:46:50.795Z,91.33
2023-04-02T00:47:23.465Z,91.33
2023-04-02T00:47:56.181Z,90.81
2023-04-02T00:48:28.931Z,90.81
2023-04-02T00:49:01.613Z,90.70
2023-04-02T00:49:34.280Z,90.39
2023-04-02T00:50:06.946Z,90.50
2023-04-02T00:50:39.614Z,90.70
2023-04-02T00:51:12.275Z,90.81
2023-04-02T00:51:44.968Z,90.91
2023-04-02T00:52:17.634Z,91.12
2023-04-02T00:52:50.293Z,91.33
2023-04-02T00:53:22.968Z,91.43
2023-04-02T00:53:55.622Z,91.22
2023-04-02T00:54:28.299Z,91.22
2023-04-02T00:55:00.993Z,90.91
2023-04-02T00:55:33.927Z,91.02
2023-04-02T00:56:00.248Z,91.22
2023-04-02T00:56:32.932Z,91.02
2023-04-02T00:57:05.684Z,90.91
2023-04-02T00:57:38.334Z,90.91
2023-04-02T00:58:11.000Z,90.70
2023-04-02T00:58:43.674Z,90.91
2023-04-02T00:59:16.349Z,91.33
2023-04-02T00:59:49.226Z,91.43
2023-04-02T01:00:21.888Z,91.43
2023-04-02T01:00:54.688Z,91.43
2023-04-02T01:01:27.429Z,91.22
2023-04-02T01:02:00.213Z,91.12
2023-04-02T01:02:33.046Z,91.12
2023-04-02T01:03:05.974Z,91.53
2023-04-02T01:03:38.830Z,91.64
2023-04-02T01:04:05.318Z,91.33
2023-04-02T01:04:37.994Z,91.43
2023-04-02T01:05:10.844Z,90.81
2023-04-02T01:05:43.592Z,90.29
2023-04-02T01:06:16.263Z,90.39
2023-04-02T01:06:48.928Z,90.39
2023-04-02T01:07:21.588Z,90.19
2023-04-02T01:07:54.258Z,90.29
2023-04-02T01:08:26.927Z,90.29
2023-04-02T01:08:59.601Z,90.39
2023-04-02T01:09:32.270Z,90.91
2023-04-02T01:10:05.057Z,90.91
2023-04-02T01:10:37.715Z,90.50
2023-04-02T01:11:10.381Z,90.39
2023-04-02T01:11:43.055Z,90.29
2023-04-02T01:12:15.724Z,90.70
2023-04-02T01:12:48.405Z,90.70
2023-04-02T01:13:21.070Z,90.50
2023-04-02T01:13:53.716Z,90.50
2023-04-02T01:14:26.393Z,90.91
2023-04-02T01:14:59.072Z,90.91
2023-04-02T01:15:31.772Z,90.81
2023-04-02T01:16:04.519Z,90.70
2023-04-02T01:16:37.203Z,90.91
2023-04-02T01:17:09.855Z,91.12
2023-04-02T01:17:42.629Z,91.22
2023-04-02T01:18:15.317Z,91.33
2023-04-02T01:18:48.002Z,91.43
2023-04-02T01:19:20.674Z,91.53
2023-04-02T01:19:53.343Z,91.33
2023-04-02T01:20:26.021Z,91.43
2023-04-02T01:20:58.692Z,91.53
2023-04-02T01:21:31.373Z,91.64
2023-04-02T01:22:04.040Z,91.96
2023-04-02T01:22:36.719Z,91.96
2023-04-02T01:23:09.417Z,91.75
2023-04-02T01:23:42.079Z,91.33
2023-04-02T01:24:14.752Z,91.33
2023-04-02T01:24:47.411Z,91.43
2023-04-02T01:25:20.102Z,91.85
2023-04-02T01:25:52.741Z,91.64
2023-04-02T01:26:25.432Z,91.22
2023-04-02T01:26:58.223Z,91.12
2023-04-02T01:27:30.871Z,90.81
2023-04-02T01:28:03.571Z,89.76
2023-04-02T01:28:36.231Z,89.45
2023-04-02T01:29:07.322Z,89.14
2023-04-02T01:29:39.991Z,89.35
2023-04-02T01:30:12.684Z,89.45
2023-04-02T01:30:45.340Z,89.45
2023-04-02T01:31:18.058Z,89.25
2023-04-02T01:31:50.748Z,89.35
2023-04-02T01:32:23.402Z,88.73
2023-04-02T01:32:56.103Z,88.31
2023-04-02T01:33:28.809Z,88.42
2023-04-02T01:34:01.456Z,88.52
2023-04-02T01:34:34.121Z,88.42
2023-04-02T01:35:06.792Z,88.42
2023-04-02T01:35:39.472Z,88.62
2023-04-02T01:36:12.201Z,88.20
2023-04-02T01:36:44.879Z,88.10
2023-04-02T01:37:17.554Z,87.06
2023-04-02T01:37:50.221Z,86.65
2023-04-02T01:38:22.888Z,86.54
2023-04-02T01:38:55.551Z,87.06
2023-04-02T01:39:28.222Z,86.85
2023-04-02T01:40:00.894Z,86.33
2023-04-02T01:40:33.610Z,86.12
2023-04-02T01:41:06.250Z,86.02
2023-04-02T01:41:38.927Z,86.33
2023-04-02T01:42:11.598Z,85.91
2023-04-02T01:42:44.265Z,86.02
2023-04-02T01:43:16.952Z,86.22
2023-04-02T01:43:49.618Z,86.33
2023-04-02T01:44:22.284Z,86.43
2023-04-02T01:44:54.946Z,86.54
2023-04-02T01:45:27.612Z,86.75
2023-04-02T01:46:00.288Z,87.06
2023-04-02T01:46:33.007Z,87.37
2023-04-02T01:47:05.686Z,87.37
2023-04-02T01:47:38.418Z,87.79
2023-04-02T01:48:11.092Z,87.68
2023-04-02T01:48:43.763Z,87.68
2023-04-02T01:49:14.862Z,87.58
2023-04-02T01:49:47.519Z,87.68
2023-04-02T01:50:20.191Z,87.37
2023-04-02T01:50:52.870Z,87.58
2023-04-02T01:51:25.538Z,86.12
2023-04-02T01:51:58.202Z,85.29
2023-04-02T01:52:30.866Z,85.60
2023-04-02T01:53:03.534Z,85.39
2023-04-02T01:53:36.196Z,85.81
2023-04-02T01:54:08.885Z,85.81
2023-04-02T01:54:41.545Z,85.81
2023-04-02T01:55:14.233Z,86.02
2023-04-02T01:55:46.931Z,86.54
2023-04-02T01:56:19.590Z,87.58
2023-04-02T01:56:52.281Z,86.96
2023-04-02T01:57:24.990Z,85.60
2023-04-02T01:57:57.663Z,85.91
2023-04-02T01:58:30.339Z,86.22
2023-04-02T01:59:03.005Z,86.22
2023-04-02T01:59:35.657Z,86.43
2023-04-02T02:00:08.336Z,86.75
2023-04-02T02:00:41.094Z,86.54
2023-04-02T02:01:13.773Z,86.43
2023-04-02T02:01:46.521Z,86.96
2023-04-02T02:02:19.189Z,87.58
2023-04-02T02:02:51.910Z,87.27
2023-04-02T02:03:24.598Z,86.54
2023-04-02T02:03:57.263Z,86.22
2023-04-02T02:04:29.928Z,86.22
2023-04-02T02:05:02.604Z,85.91
2023-04-02T02:05:35.443Z,85.91
2023-04-02T02:06:08.192Z,86.02
2023-04-02T02:06:40.875Z,86.22
2023-04-02T02:07:13.542Z,86.02
2023-04-02T02:07:46.203Z,85.91
2023-04-02T02:08:18.869Z,86.02
2023-04-02T02:08:51.557Z,86.12
2023-04-02T02:09:24.205Z,86.54
2023-04-02T02:09:56.881Z,85.91
2023-04-02T02:10:29.547Z,85.81
2023-04-02T02:11:02.238Z,85.50
2023-04-02T02:11:34.897Z,85.60
2023-04-02T02:12:07.565Z,85.60
2023-04-02T02:12:40.231Z,85.50
2023-04-02T02:13:12.917Z,85.71
2023-04-02T02:13:45.580Z,85.81
2023-04-02T02:14:18.258Z,85.81
2023-04-02T02:14:50.926Z,85.39
2023-04-02T02:15:23.600Z,85.39
2023-04-02T02:15:56.291Z,85.39
2023-04-02T02:16:29.041Z,85.71
2023-04-02T02:17:01.721Z,86.02
2023-04-02T02:17:34.475Z,86.22
2023-04-02T02:18:07.185Z,85.91
2023-04-02T02:18:39.844Z,85.71
2023-04-02T02:19:12.819Z,85.91
2023-04-02T02:19:45.482Z,86.12
2023-04-02T02:20:18.146Z,86.22
2023-04-02T02:20:50.815Z,86.22
2023-04-02T02:21:23.493Z,86.02
2023-04-02T02:21:56.164Z,85.91
2023-04-02T02:22:28.830Z,85.81
2023-04-02T02:23:01.492Z,86.02
2023-04-02T02:23:34.158Z,85.81
2023-04-02T02:24:06.822Z,85.71
2023-04-02T02:24:39.482Z,85.81
2023-04-02T02:25:12.152Z,86.02
2023-04-02T02:25:44.812Z,86.22
2023-04-02T02:26:17.515Z,86.75
2023-04-02T02:26:50.150Z,86.33
2023-04-02T02:27:22.850Z,86.12
2023-04-02T02:27:55.495Z,85.81
2023-04-02T02:28:28.145Z,85.71
2023-04-02T02:29:00.824Z,85.71
2023-04-02T02:29:33.473Z,85.81
2023-04-02T02:30:06.142Z,86.02
2023-04-02T02:30:38.811Z,85.81
2023-04-02T02:31:11.474Z,85.39
2023-04-02T02:31:44.187Z,85.60
2023-04-02T02:32:16.836Z,85.91
2023-04-02T02:32:49.510Z,85.81
2023-04-02T02:33:22.180Z,86.02
2023-04-02T02:33:54.847Z,86.12
2023-04-02T02:34:27.519Z,86.12
2023-04-02T02:35:00.213Z,86.12
2023-04-02T02:35:33.132Z,86.02
2023-04-02T02:35:59.517Z,86.22
2023-04-02T02:36:32.208Z,86.22
2023-04-02T02:37:04.865Z,86.43
2023-04-02T02:37:37.536Z,86.43
2023-04-02T02:38:10.196Z,86.54
2023-04-02T02:38:42.870Z,86.65
2023-04-02T02:39:15.527Z,86.85
2023-04-02T02:39:48.199Z,86.96
2023-04-02T02:40:20.867Z,86.75
2023-04-02T02:40:53.524Z,86.96
2023-04-02T02:41:26.244Z,86.96
2023-04-02T02:41:58.896Z,87.16
2023-04-02T02:42:31.556Z,87.16
2023-04-02T02:43:04.237Z,87.16
2023-04-02T02:43:36.904Z,86.96
2023-04-02T02:44:09.604Z,86.96
2023-04-02T02:44:42.264Z,87.06
2023-04-02T02:45:14.920Z,87.37
2023-04-02T02:45:47.644Z,87.20
2023-04-02T02:46:20.367Z,87.16
2023-04-02T02:46:53.060Z,87.06
2023-04-02T02:47:25.733Z,87.06
2023-04-02T02:47:58.427Z,86.79
2023-04-02T02:48:31.065Z,86.79
2023-04-02T02:49:03.718Z,86.99
2023-04-02T02:49:36.390Z,86.85
2023-04-02T02:50:09.058Z,86.75
2023-04-02T02:50:41.725Z,87.16
2023-04-02T02:51:15.587Z,87.16
2023-04-02T02:51:41.821Z,87.27
2023-04-02T02:52:14.484Z,87.16
2023-04-02T02:52:47.159Z,87.27
2023-04-02T02:53:19.833Z,87.20
2023-04-02T02:53:52.500Z,87.27
2023-04-02T02:54:25.158Z,87.30
2023-04-02T02:54:57.816Z,87.16
2023-04-02T02:55:30.478Z,86.65
2023-04-02T02:56:03.156Z,86.54
2023-04-02T02:56:35.859Z,86.43
2023-04-02T02:57:08.717Z,86.65
2023-04-02T02:57:41.398Z,86.85
2023-04-02T02:58:14.063Z,86.85
2023-04-02T02:58:46.821Z,86.75
2023-04-02T02:59:17.831Z,87.06
2023-04-02T02:59:50.493Z,87.16
2023-04-02T03:00:23.171Z,86.96
2023-04-02T03:00:55.835Z,87.16
2023-04-02T03:01:28.526Z,87.37
2023-04-02T03:02:01.190Z,87.16
2023-04-02T03:02:33.924Z,87.16
2023-04-02T03:03:06.762Z,87.37
2023-04-02T03:03:39.678Z,87.16
2023-04-02T03:04:12.495Z,87.16
2023-04-02T03:04:45.189Z,87.58
2023-04-02T03:05:17.862Z,87.58
2023-04-02T03:05:50.519Z,87.68
2023-04-02T03:06:23.195Z,87.89
2023-04-02T03:06:55.860Z,88.10
2023-04-02T03:07:28.528Z,88.10
2023-04-02T03:08:01.190Z,88.31
2023-04-02T03:08:33.887Z,88.42
2023-04-02T03:09:06.539Z,88.10
2023-04-02T03:09:39.211Z,87.48
2023-04-02T03:10:11.917Z,86.85
2023-04-02T03:10:42.964Z,86.96
2023-04-02T03:11:15.645Z,87.27
2023-04-02T03:11:48.352Z,87.27
2023-04-02T03:12:21.002Z,87.16
2023-04-02T03:12:53.693Z,87.37
2023-04-02T03:13:26.350Z,87.16
2023-04-02T03:13:59.013Z,87.27
2023-04-02T03:14:31.683Z,87.48
2023-04-02T03:15:04.348Z,87.37
2023-04-02T03:15:37.287Z,87.37
2023-04-02T03:16:03.712Z,87.37
2023-04-02T03:16:36.404Z,87.37
2023-04-02T03:17:09.069Z,87.06
2023-04-02T03:17:41.775Z,86.65
2023-04-02T03:18:14.499Z,86.43
2023-04-02T03:18:47.159Z,86.22
2023-04-02T03:19:19.850Z,86.12
2023-04-02T03:19:52.511Z,86.22
2023-04-02T03:20:25.182Z,86.54
2023-04-02T03:20:57.853Z,86.85
2023-04-02T03:21:30.535Z,87.16
2023-04-02T03:22:03.367Z,87.37
2023-04-02T03:22:36.030Z,87.68
2023-04-02T03:23:08.677Z,87.06
2023-04-02T03:23:41.340Z,87.06
2023-04-02T03:24:14.004Z,87.06
2023-04-02T03:24:46.682Z,87.37
2023-04-02T03:25:19.341Z,87.68
2023-04-02T03:25:52.004Z,87.48
2023-04-02T03:26:24.687Z,87.58
2023-04-02T03:26:57.374Z,87.68
2023-04-02T03:27:30.014Z,87.89
2023-04-02T03:28:02.671Z,88.20
2023-04-02T03:28:35.352Z,88.52
2023-04-02T03:29:08.031Z,88.62
2023-04-02T03:29:40.718Z,88.62
2023-04-02T03:30:13.375Z,88.73
2023-04-02T03:30:46.044Z,89.04
2023-04-02T03:31:18.752Z,88.62
2023-04-02T03:31:51.413Z,87.99
2023-04-02T03:32:24.043Z,87.89
2023-04-02T03:32:56.772Z,87.89
2023-04-02T03:33:29.450Z,87.99
2023-04-02T03:34:02.122Z,87.99
2023-04-02T03:34:34.789Z,88.10
2023-04-02T03:35:07.461Z,88.20
2023-04-02T03:35:40.239Z,87.89
2023-04-02T03:36:13.026Z,87.37
2023-04-02T03:36:45.704Z,87.48
2023-04-02T03:37:18.377Z,87.79
2023-04-02T03:37:51.059Z,87.68
2023-04-02T03:38:23.724Z,87.79
2023-04-02T03:38:56.397Z,87.79
2023-04-02T03:39:29.075Z,87.99
2023-04-02T03:40:01.763Z,88.10
2023-04-02T03:40:34.402Z,87.68
2023-04-02T03:41:07.074Z,87.37
2023-04-02T03:41:39.750Z,87.48
2023-04-02T03:42:12.442Z,87.68
2023-04-02T03:42:45.095Z,87.79
2023-04-02T03:43:16.168Z,87.89
2023-04-02T03:43:48.830Z,87.79
2023-04-02T03:44:21.501Z,87.68
2023-04-02T03:44:54.237Z,86.85
2023-04-02T03:45:26.892Z,86.85
2023-04-02T03:45:59.601Z,87.06
2023-04-02T03:46:32.327Z,86.96
2023-04-02T03:47:04.977Z,86.75
2023-04-02T03:47:37.672Z,86.43
2023-04-02T03:48:10.330Z,86.54
2023-04-02T03:48:43.020Z,86.65
2023-04-02T03:49:15.686Z,86.54
2023-04-02T03:49:48.357Z,86.75
2023-04-02T03:50:21.009Z,86.75
2023-04-02T03:50:53.686Z,86.85
2023-04-02T03:51:26.368Z,86.85
2023-04-02T03:51:59.153Z,86.85
2023-04-02T03:52:31.806Z,86.33
2023-04-02T03:53:04.489Z,86.33
2023-04-02T03:53:37.155Z,86.54
2023-04-02T03:54:09.826Z,86.43
2023-04-02T03:54:53.831Z,86.43
2023-04-02T03:55:14.576Z,86.12
2023-04-02T03:55:40.746Z,85.81
2023-04-02T03:56:13.417Z,86.02
2023-04-02T03:56:46.099Z,86.22
2023-04-02T03:57:18.813Z,86.22
2023-04-02T03:57:51.484Z,86.12
2023-04-02T03:58:24.150Z,85.91
2023-04-02T03:58:56.813Z,85.50
2023-04-02T03:59:29.478Z,85.39
2023-04-02T04:00:02.136Z,85.71
2023-04-02T04:00:34.799Z,85.91
2023-04-02T04:01:07.505Z,85.91
2023-04-02T04:01:40.184Z,85.81
2023-04-02T04:02:12.864Z,85.81
2023-04-02T04:02:45.587Z,86.02
2023-04-02T04:03:18.255Z,86.43
2023-04-02T04:03:50.945Z,86.65
2023-04-02T04:04:23.704Z,86.43
2023-04-02T04:04:56.377Z,86.43
2023-04-02T04:05:29.070Z,86.33
2023-04-02T04:06:01.719Z,86.43
2023-04-02T04:06:34.454Z,86.12
2023-04-02T04:07:07.084Z,85.91
2023-04-02T04:07:39.766Z,85.91
2023-04-02T04:08:12.422Z,85.71
2023-04-02T04:08:45.126Z,85.71
2023-04-02T04:09:17.761Z,86.12
2023-04-02T04:09:50.424Z,86.22
2023-04-02T04:10:23.113Z,86.43
2023-04-02T04:10:55.794Z,86.65
2023-04-02T04:11:28.491Z,87.06
2023-04-02T04:12:01.179Z,86.96
2023-04-02T04:12:33.865Z,86.85
2023-04-02T04:13:06.525Z,86.65
2023-04-02T04:13:39.177Z,86.54
2023-04-02T04:14:11.839Z,86.65
2023-04-02T04:14:45.407Z,86.54
2023-04-02T04:15:11.584Z,86.54
2023-04-02T04:15:44.256Z,86.75
2023-04-02T04:16:17.007Z,86.85
2023-04-02T04:16:49.715Z,87.16
2023-04-02T04:17:22.356Z,87.06
2023-04-02T04:17:55.087Z,87.06
2023-04-02T04:18:27.914Z,87.27
2023-04-02T04:19:00.579Z,87.48
2023-04-02T04:19:33.297Z,87.58
2023-04-02T04:20:05.930Z,87.06
2023-04-02T04:20:38.613Z,86.43
2023-04-02T04:21:11.266Z,86.43
2023-04-02T04:21:43.953Z,86.43
2023-04-02T04:22:16.622Z,86.43
2023-04-02T04:22:49.324Z,86.54
2023-04-02T04:23:22.002Z,86.43
2023-04-02T04:23:54.664Z,86.12
2023-04-02T04:24:27.360Z,86.12
2023-04-02T04:25:00.026Z,86.02
2023-04-02T04:25:32.690Z,86.12
2023-04-02T04:26:05.350Z,86.22
2023-04-02T04:26:38.049Z,86.43
2023-04-02T04:27:10.703Z,86.33
2023-04-02T04:27:43.409Z,86.33
2023-04-02T04:28:16.050Z,86.33
2023-04-02T04:28:48.718Z,86.54
2023-04-02T04:29:21.391Z,86.12
2023-04-02T04:29:54.216Z,85.71
2023-04-02T04:30:26.877Z,85.81
2023-04-02T04:30:59.618Z,86.22
2023-04-02T04:31:32.331Z,86.33
2023-04-02T04:32:05.012Z,86.43
2023-04-02T04:32:37.713Z,87.06
2023-04-02T04:33:10.413Z,87.16
2023-04-02T04:33:43.071Z,87.16
2023-04-02T04:34:15.740Z,87.16
2023-04-02T04:34:48.417Z,87.06
2023-04-02T04:35:21.071Z,87.06
2023-04-02T04:35:53.769Z,87.16
2023-04-02T04:36:26.421Z,87.37
2023-04-02T04:36:59.082Z,87.68
2023-04-02T04:37:31.764Z,87.58
2023-04-02T04:38:04.413Z,87.48
2023-04-02T04:38:37.085Z,87.06
2023-04-02T04:39:09.753Z,87.06
2023-04-02T04:39:42.415Z,87.37
2023-04-02T04:40:15.100Z,87.58
2023-04-02T04:40:47.783Z,87.68
2023-04-02T04:41:20.471Z,87.68
2023-04-02T04:41:53.140Z,86.96
2023-04-02T04:42:25.816Z,86.85
2023-04-02T04:42:58.517Z,86.85
2023-04-02T04:43:31.162Z,86.54
2023-04-02T04:44:03.845Z,86.65
2023-04-02T04:44:36.501Z,86.85
2023-04-02T04:45:09.163Z,87.16
2023-04-02T04:45:41.858Z,86.65
2023-04-02T04:46:14.577Z,86.43
2023-04-02T04:46:47.264Z,86.33
2023-04-02T04:47:19.941Z,86.65
2023-04-02T04:47:52.630Z,86.54
2023-04-02T04:48:25.278Z,86.43
2023-04-02T04:48:57.939Z,86.65
2023-04-02T04:49:30.613Z,86.85
2023-04-02T04:50:03.273Z,86.96
2023-04-02T04:50:35.944Z,87.06
2023-04-02T04:51:08.623Z,87.27
2023-04-02T04:51:41.282Z,87.48
2023-04-02T04:52:13.947Z,87.58
2023-04-02T04:52:46.618Z,87.68
2023-04-02T04:53:19.276Z,87.99
2023-04-02T04:53:51.947Z,87.79
2023-04-02T04:54:24.614Z,87.27
2023-04-02T04:54:57.276Z,87.27
2023-04-02T04:55:29.937Z,87.37
2023-04-02T04:56:15.902Z,87.48
2023-04-02T04:56:34.717Z,87.79
2023-04-02T04:57:00.919Z,87.89
2023-04-02T04:57:33.583Z,87.68
2023-04-02T04:58:06.265Z,87.48
2023-04-02T04:58:38.909Z,87.48
2023-04-02T04:59:11.563Z,87.68
2023-04-02T04:59:44.260Z,87.79
2023-04-02T05:00:16.933Z,87.89
2023-04-02T05:00:50.187Z,87.79
2023-04-02T05:01:16.445Z,87.89
2023-04-02T05:01:49.151Z,87.79
2023-04-02T05:02:21.802Z,87.99
2023-04-02T05:02:54.503Z,88.20
2023-04-02T05:03:27.181Z,88.31
2023-04-02T05:03:59.830Z,88.20
2023-04-02T05:04:32.510Z,88.31
2023-04-02T05:05:05.312Z,87.89
2023-04-02T05:05:38.016Z,87.79
2023-04-02T05:06:10.670Z,87.37
2023-04-02T05:06:43.369Z,87.37
2023-04-02T05:07:16.032Z,87.37
2023-04-02T05:07:48.727Z,87.37
2023-04-02T05:08:21.360Z,87.48
2023-04-02T05:08:54.028Z,87.37
2023-04-02T05:09:26.711Z,87.48
2023-04-02T05:09:59.407Z,87.33
2023-04-02T05:10:32.062Z,87.06
2023-04-02T05:11:04.719Z,87.02
2023-04-02T05:11:37.409Z,87.23
2023-04-02T05:12:10.081Z,87.23
2023-04-02T05:12:42.756Z,87.12
2023-04-02T05:13:15.442Z,87.33
2023-04-02T05:13:48.079Z,87.12
2023-04-02T05:14:20.746Z,87.23
2023-04-02T05:14:53.407Z,87.33
2023-04-02T05:15:26.100Z,87.33
2023-04-02T05:16:01.209Z,87.54
2023-04-02T05:16:27.698Z,87.33
2023-04-02T05:17:00.369Z,86.91
2023-04-02T05:17:33.070Z,86.81
2023-04-02T05:18:05.759Z,86.91
2023-04-02T05:18:38.415Z,86.60
2023-04-02T05:19:11.094Z,86.71
2023-04-02T05:19:43.765Z,86.60
2023-04-02T05:20:16.504Z,86.50
2023-04-02T05:20:49.174Z,86.81
2023-04-02T05:21:21.843Z,86.50
2023-04-02T05:21:54.500Z,86.40
2023-04-02T05:22:27.172Z,86.40
2023-04-02T05:22:59.838Z,86.50
2023-04-02T05:23:32.489Z,86.81
2023-04-02T05:24:05.159Z,87.12
2023-04-02T05:24:37.825Z,87.23
2023-04-02T05:25:10.497Z,86.50
2023-04-02T05:25:43.153Z,85.88
2023-04-02T05:26:15.857Z,85.35
2023-04-02T05:26:48.511Z,85.56
2023-04-02T05:27:21.175Z,86.08
2023-04-02T05:27:53.835Z,85.98
2023-04-02T05:28:26.533Z,85.77
2023-04-02T05:28:59.158Z,85.88
2023-04-02T05:29:31.827Z,86.29
2023-04-02T05:30:04.499Z,86.40
2023-04-02T05:30:37.169Z,86.40
2023-04-02T05:31:09.840Z,86.40
2023-04-02T05:31:42.632Z,85.67
2023-04-02T05:32:15.279Z,85.46
2023-04-02T05:32:47.997Z,85.56
2023-04-02T05:33:20.651Z,85.35
2023-04-02T05:33:53.314Z,85.04
2023-04-02T05:34:25.987Z,85.25
2023-04-02T05:34:58.652Z,85.46
2023-04-02T05:35:31.319Z,85.77
2023-04-02T05:36:04.045Z,85.98
2023-04-02T05:36:36.769Z,85.98
2023-04-02T05:37:09.440Z,86.08
2023-04-02T05:37:42.111Z,86.19
2023-04-02T05:38:14.779Z,86.29
2023-04-02T05:38:47.449Z,86.40
2023-04-02T05:39:20.125Z,86.08
2023-04-02T05:39:52.782Z,85.98
2023-04-02T05:40:25.461Z,86.29
2023-04-02T05:40:58.131Z,86.60
2023-04-02T05:41:30.807Z,86.40
2023-04-02T05:42:03.483Z,86.08
2023-04-02T05:42:36.154Z,86.19
2023-04-02T05:43:08.809Z,86.19
2023-04-02T05:43:41.525Z,85.98
2023-04-02T05:44:14.166Z,85.88
2023-04-02T05:44:46.835Z,85.98
2023-04-02T05:45:19.512Z,85.98
2023-04-02T05:45:52.189Z,86.19
2023-04-02T05:46:24.930Z,86.19
2023-04-02T05:46:57.645Z,86.60
2023-04-02T05:47:30.356Z,86.40
2023-04-02T05:48:03.032Z,85.98
2023-04-02T05:48:35.666Z,85.77
2023-04-02T05:49:08.340Z,86.08
2023-04-02T05:49:41.010Z,84.94
2023-04-02T05:50:13.676Z,84.83
2023-04-02T05:50:46.342Z,85.04
2023-04-02T05:51:19.036Z,85.14
2023-04-02T05:51:51.704Z,85.31
2023-04-02T05:52:24.369Z,85.73
2023-04-02T05:52:57.049Z,86.15
2023-04-02T05:53:29.707Z,85.73
2023-04-02T05:54:02.382Z,85.21
2023-04-02T05:54:35.064Z,85.00
2023-04-02T05:55:07.735Z,85.21
2023-04-02T05:55:40.415Z,85.00
2023-04-02T05:56:13.086Z,85.42
2023-04-02T05:56:45.768Z,85.31
2023-04-02T05:57:19.330Z,84.80
2023-04-02T05:57:56.675Z,84.59
2023-04-02T05:58:46.797Z,84.48
2023-04-02T05:59:19.576Z,84.48
2023-04-02T05:59:52.221Z,84.48
2023-04-02T06:00:24.883Z,84.90
2023-04-02T06:00:57.553Z,84.59
2023-04-02T06:01:30.228Z,84.27
2023-04-02T06:02:03.009Z,84.69
2023-04-02T06:02:35.758Z,84.69
2023-04-02T06:03:08.592Z,84.38
2023-04-02T06:03:41.347Z,84.48
2023-04-02T06:04:14.071Z,84.65
2023-04-02T06:04:46.748Z,84.48
2023-04-02T06:05:19.414Z,84.23
2023-04-02T06:05:52.088Z,84.23
2023-04-02T06:06:24.780Z,84.55
2023-04-02T06:06:57.447Z,84.55
2023-04-02T06:07:30.124Z,83.51
2023-04-02T06:08:02.787Z,83.51
2023-04-02T06:08:35.461Z,83.09
2023-04-02T06:09:08.134Z,83.09
2023-04-02T06:09:40.800Z,83.20
2023-04-02T06:10:13.474Z,83.61
2023-04-02T06:10:46.149Z,83.72
2023-04-02T06:11:18.848Z,83.20
2023-04-02T06:11:51.513Z,82.99
2023-04-02T06:12:24.213Z,83.09
2023-04-02T06:12:56.887Z,83.30
2023-04-02T06:13:29.582Z,83.09
2023-04-02T06:14:02.264Z,83.40
2023-04-02T06:14:34.981Z,83.20
2023-04-02T06:15:07.631Z,83.09
2023-04-02T06:15:40.306Z,83.09
2023-04-02T06:16:12.994Z,83.40
2023-04-02T06:16:44.143Z,83.26
2023-04-02T06:17:16.789Z,83.47
2023-04-02T06:17:49.495Z,83.58
2023-04-02T06:18:22.147Z,83.58
2023-04-02T06:18:54.825Z,83.37
2023-04-02T06:19:27.510Z,83.37
2023-04-02T06:20:00.178Z,82.64
2023-04-02T06:20:32.826Z,82.12
2023-04-02T06:21:05.501Z,81.70
2023-04-02T06:21:38.179Z,82.01
2023-04-02T06:22:10.867Z,82.22
2023-04-02T06:22:43.534Z,81.81
2023-04-02T06:23:16.206Z,81.08
2023-04-02T06:23:48.875Z,81.39
2023-04-02T06:24:21.553Z,81.08
2023-04-02T06:24:54.220Z,81.49
2023-04-02T06:25:26.878Z,82.01
2023-04-02T06:25:59.556Z,81.98
2023-04-02T06:26:32.255Z,81.56
2023-04-02T06:27:04.919Z,80.77
2023-04-02T06:27:37.587Z,80.98
2023-04-02T06:28:10.248Z,81.98
2023-04-02T06:28:42.915Z,81.25
2023-04-02T06:29:15.617Z,80.25
2023-04-02T06:29:48.267Z,79.83
2023-04-02T06:30:20.946Z,80.04
2023-04-02T06:30:53.636Z,79.94
2023-04-02T06:31:26.359Z,80.04
2023-04-02T06:31:59.063Z,80.04
2023-04-02T06:32:31.800Z,79.31
2023-04-02T06:33:04.712Z,79.41
2023-04-02T06:33:37.477Z,79.52
2023-04-02T06:34:10.136Z,79.94
2023-04-02T06:34:42.825Z,80.04
2023-04-02T06:35:15.477Z,80.04
2023-04-02T06:35:48.180Z,80.46
2023-04-02T06:36:20.913Z,80.46
2023-04-02T06:36:53.590Z,80.25
2023-04-02T06:37:26.268Z,80.15
2023-04-02T06:37:58.931Z,80.77
2023-04-02T06:38:31.601Z,80.52
2023-04-02T06:39:04.260Z,80.21
2023-04-02T06:39:36.942Z,79.90
2023-04-02T06:40:09.602Z,79.00
2023-04-02T06:40:42.276Z,79.00
2023-04-02T06:41:14.950Z,78.69
2023-04-02T06:41:47.628Z,78.75
2023-04-02T06:42:20.304Z,78.96
2023-04-02T06:42:52.970Z,79.80
2023-04-02T06:43:25.634Z,79.58
2023-04-02T06:43:58.302Z,80.00
2023-04-02T06:44:30.998Z,78.75
2023-04-02T06:45:03.661Z,79.06
2023-04-02T06:45:36.604Z,78.96
2023-04-02T06:46:02.911Z,78.72
2023-04-02T06:46:35.687Z,78.30
2023-04-02T06:47:08.431Z,77.47
2023-04-02T06:47:41.145Z,77.92
2023-04-02T06:48:13.831Z,78.61
2023-04-02T06:48:46.502Z,79.13
2023-04-02T06:49:19.184Z,78.82
2023-04-02T06:49:51.847Z,78.82
2023-04-02T06:50:24.520Z,79.13
2023-04-02T06:50:57.197Z,78.75
2023-04-02T06:51:29.893Z,78.34
2023-04-02T06:52:02.576Z,78.51
2023-04-02T06:52:35.298Z,78.72
2023-04-02T06:53:07.957Z,78.61
2023-04-02T06:53:40.623Z,79.13
2023-04-02T06:54:13.291Z,78.92
2023-04-02T06:54:45.983Z,77.68
2023-04-02T06:55:18.701Z,77.68
2023-04-02T06:55:51.377Z,76.85
2023-04-02T06:56:24.067Z,76.54
2023-04-02T06:56:56.784Z,76.33
2023-04-02T06:57:29.545Z,77.06
2023-04-02T06:58:02.206Z,77.37
2023-04-02T06:58:34.864Z,77.06
2023-04-02T06:59:07.582Z,76.75
2023-04-02T06:59:40.293Z,76.12